Church Hill, Texas
Current Conditions -  °F | °C
As of 3:15 PM on Monday 22 Dec 2014 (Local Time) from KRFI Reporting Station
Scattered Clouds Scattered Clouds  
Wind Chill: 70°   Ceiling: Unl
Heat Index: 70°   Visibility: 10mi
Dew Point: 51°   Wind: 8mph
Humidity: 52%   Direction: 220°SW
Pressure: 29.56"   Gusts: 17mph
Location:  32.1449°N, 94.7416°W
Report Text: KRFI 222115Z AUTO 22007G15KT 10SM SCT042 21/11 A2956 RMK AO2 T02100108
Loading
Personal Weather Stations






























Interactive Weather Map New forecast layout! Learn more

10-Day Weather Forecast

Advertisements
Track Severe Weather on mobile